Time;durP1;ratioP1;P1;durP2;ratioP2;P2;SDS_P1;SDS_P2;PMS_P1;PMS_P2;Temp;Humidity;BMP_temperature;BMP_pressure;BME280_temperature;BME280_humidity;BME280_pressure;Samples;Min_cycle;Max_cycle;Signal;HPM_P1;HPM_P2
2022/09/27 00:01:21;;;;;;;0.00;0.00;;;12.90;99.90;;;;;;6137565;23;20016;-70
2022/09/27 00:03:47;;;;;;;0.00;0.00;;;12.90;99.90;;;;;;6137741;23;20331;-70
2022/09/27 00:06:17;;;;;;;0.00;0.00;;;12.90;99.90;;;;;;6136131;23;20009;-70
2022/09/27 00:08:43;;;;;;;0.00;0.00;;;12.90;99.90;;;;;;6137543;23;20005;-70
2022/09/27 00:11:37;;;;;;;0.00;0.00;;;12.90;99.90;;;;;;6137654;23;20013;-70
2022/09/27 00:14:03;;;;;;;0.00;0.00;;;12.90;99.90;;;;;;6136964;23;20033;-70
2022/09/27 00:16:33;;;;;;;0.00;0.00;;;12.90;99.90;;;;;;6139845;23;20561;-70
2022/09/27 00:19:05;;;;;;;0.00;0.00;;;12.90;99.90;;;;;;6136201;23;20013;-71
2022/09/27 00:21:31;;;;;;;0.00;0.00;;;12.90;99.90;;;;;;6136712;23;20001;-70
2022/09/27 00:23:58;;;;;;;0.00;0.00;;;12.90;99.90;;;;;;6137167;23;20141;-71
2022/09/27 00:26:23;;;;;;;0.20;0.20;;;12.80;99.90;;;;;;6131659;23;20013;-70
2022/09/27 00:28:49;;;;;;;0.00;0.00;;;12.90;99.90;;;;;;6136163;23;20315;-71
2022/09/27 00:31:28;;;;;;;0.00;0.00;;;12.80;99.90;;;;;;6138016;23;20037;-70
2022/09/27 00:33:55;;;;;;;0.25;0.25;;;12.80;99.90;;;;;;6136152;23;20006;-70
2022/09/27 00:36:22;;;;;;;0.00;0.00;;;12.70;99.90;;;;;;6133307;23;20001;-71
2022/09/27 00:38:49;;;;;;;0.00;0.00;;;12.70;99.90;;;;;;6136195;23;20006;-70
2022/09/27 00:41:23;;;;;;;0.00;0.00;;;12.70;99.90;;;;;;6136182;23;20601;-70
2022/09/27 00:43:54;;;;;;;0.00;0.00;;;12.70;99.90;;;;;;6137195;23;20032;-70
2022/09/27 00:46:38;;;;;;;0.00;0.00;;;12.70;99.90;;;;;;6137667;23;20001;-70
2022/09/27 00:49:28;;;;;;;0.00;0.00;;;12.70;99.90;;;;;;6137674;23;20020;-70
2022/09/27 00:52:22;;;;;;;0.00;0.00;;;12.60;99.90;;;;;;6141754;23;20552;-70
2022/09/27 00:54:52;;;;;;;0.00;0.00;;;12.70;99.90;;;;;;6127267;23;20005;-70
2022/09/27 00:57:20;;;;;;;0.00;0.00;;;12.60;99.90;;;;;;6137869;23;20535;-70
2022/09/27 00:59:54;;;;;;;0.00;0.00;;;12.60;99.90;;;;;;6137557;23;20060;-70
2022/09/27 01:02:20;;;;;;;0.00;0.00;;;12.60;99.90;;;;;;6136343;23;20009;-70
2022/09/27 01:04:46;;;;;;;0.28;0.15;;;12.60;99.90;;;;;;6137772;23;20012;-70
2022/09/27 01:07:12;;;;;;;0.00;0.00;;;12.60;99.90;;;;;;6135502;23;20085;-70
2022/09/27 01:09:38;;;;;;;0.00;0.00;;;12.50;99.90;;;;;;6135446;23;20009;-70
2022/09/27 01:12:18;;;;;;;0.10;0.10;;;12.50;99.90;;;;;;6136290;23;20001;-70
2022/09/27 01:15:08;;;;;;;0.00;0.00;;;12.50;99.90;;;;;;6133282;23;20040;-71
2022/09/27 01:17:43;;;;;;;0.13;0.10;;;12.40;99.90;;;;;;6137603;23;20790;-70
2022/09/27 01:20:42;;;;;;;0.00;0.00;;;12.40;99.90;;;;;;6131977;23;20006;-71
2022/09/27 01:23:19;;;;;;;0.00;0.00;;;12.40;99.90;;;;;;6138054;23;20049;-70
2022/09/27 01:26:15;;;;;;;0.00;0.00;;;12.40;99.90;;;;;;6136827;23;20033;-70
2022/09/27 01:28:55;;;;;;;0.00;0.00;;;12.50;99.90;;;;;;6137132;23;20006;-70
2022/09/27 01:31:35;;;;;;;0.00;0.00;;;12.50;99.90;;;;;;6132234;23;20056;-70
2022/09/27 01:34:18;;;;;;;0.00;0.00;;;12.40;99.90;;;;;;6137679;23;20013;-70
2022/09/27 01:37:18;;;;;;;0.00;0.00;;;12.30;99.90;;;;;;6143915;23;20604;-70
2022/09/27 01:40:04;;;;;;;0.00;0.00;;;12.30;99.90;;;;;;6136673;23;20379;-70
2022/09/27 01:42:46;;;;;;;0.00;0.00;;;12.30;99.90;;;;;;6131222;23;20020;-70
2022/09/27 01:45:23;;;;;;;0.00;0.00;;;12.20;99.90;;;;;;6135048;23;20009;-70
2022/09/27 01:47:52;;;;;;;0.22;0.05;;;12.20;99.90;;;;;;6135099;23;20005;-71
2022/09/27 01:50:35;;;;;;;0.00;0.00;;;12.30;99.90;;;;;;6129823;23;19994;-71
2022/09/27 01:53:21;;;;;;;0.00;0.00;;;12.20;99.90;;;;;;6132872;23;20009;-70
2022/09/27 01:55:50;;;;;;;0.00;0.00;;;12.20;99.90;;;;;;6136718;23;20069;-70
2022/09/27 01:58:32;;;;;;;0.00;0.00;;;12.30;99.90;;;;;;6137122;23;20019;-70
2022/09/27 02:00:59;;;;;;;0.00;0.00;;;12.20;99.90;;;;;;6137027;23;20104;-70
2022/09/27 02:03:48;;;;;;;0.38;0.05;;;12.20;99.90;;;;;;6132876;23;20696;-70
2022/09/27 02:06:29;;;;;;;0.00;0.00;;;12.20;99.90;;;;;;6131179;23;20009;-71
2022/09/27 02:09:03;;;;;;;0.00;0.00;;;12.20;99.90;;;;;;6141876;23;20020;-70
2022/09/27 02:11:29;;;;;;;0.00;0.00;;;12.30;99.90;;;;;;6136759;23;20032;-70
2022/09/27 02:13:57;;;;;;;0.00;0.00;;;12.30;99.90;;;;;;6137805;23;20351;-70
2022/09/27 02:16:47;;;;;;;0.10;0.10;;;12.30;99.90;;;;;;6137960;23;20005;-70
2022/09/27 02:19:34;;;;;;;0.00;0.00;;;12.30;99.90;;;;;;6138901;23;20001;-70
2022/09/27 02:22:15;;;;;;;0.00;0.00;;;12.40;99.90;;;;;;6142999;23;20013;-70
2022/09/27 02:25:10;;;;;;;0.00;0.00;;;12.40;99.90;;;;;;6139142;23;20006;-70
2022/09/27 02:27:54;;;;;;;0.10;0.10;;;12.50;99.90;;;;;;6138414;23;20012;-70
2022/09/27 02:30:20;;;;;;;0.03;0.03;;;12.50;99.90;;;;;;6142554;23;20005;-71
2022/09/27 02:32:46;;;;;;;0.00;0.00;;;12.40;99.90;;;;;;6139757;23;20471;-71
2022/09/27 02:35:22;;;;;;;0.07;0.07;;;12.40;99.90;;;;;;6140288;23;20040;-70
2022/09/27 02:37:50;;;;;;;0.00;0.00;;;12.40;99.90;;;;;;6134207;23;20237;-71
2022/09/27 02:40:16;;;;;;;0.00;0.00;;;12.40;99.90;;;;;;6144902;23;20008;-70
2022/09/27 02:42:43;;;;;;;0.00;0.00;;;12.40;99.90;;;;;;6138081;23;20010;-70
2022/09/27 02:45:11;;;;;;;0.00;0.00;;;12.30;99.90;;;;;;6138189;23;20398;-70
2022/09/27 02:47:49;;;;;;;0.03;0.03;;;12.30;99.90;;;;;;6138116;23;20067;-70
2022/09/27 02:50:50;;;;;;;0.00;0.00;;;12.30;99.90;;;;;;6136652;23;20701;-74
2022/09/27 02:53:32;;;;;;;0.00;0.00;;;12.20;99.90;;;;;;6088922;23;20033;-70
2022/09/27 02:56:36;;;;;;;0.00;0.00;;;12.10;99.90;;;;;;6138133;23;20424;-70
2022/09/27 02:59:08;;;;;;;0.00;0.00;;;12.20;99.90;;;;;;6058157;23;20011;-70
2022/09/27 03:01:38;;;;;;;0.00;0.00;;;12.10;99.90;;;;;;6142821;23;20005;-70
2022/09/27 03:04:34;;;;;;;0.00;0.00;;;12.10;99.90;;;;;;6141722;23;20036;-70
2022/09/27 03:07:00;;;;;;;0.00;0.00;;;12.10;99.90;;;;;;6140895;23;20016;-70
2022/09/27 03:09:47;;;;;;;0.00;0.00;;;12.10;99.90;;;;;;6137357;23;20032;-70
2022/09/27 03:12:13;;;;;;;0.00;0.00;;;12.10;99.90;;;;;;6134965;23;20060;-70
2022/09/27 03:14:39;;;;;;;0.10;0.10;;;12.10;99.90;;;;;;6135474;23;20027;-70
2022/09/27 03:17:05;;;;;;;0.00;0.00;;;12.10;99.90;;;;;;6134917;23;20420;-71
2022/09/27 03:19:30;;;;;;;0.00;0.00;;;12.10;99.90;;;;;;6135196;23;20009;-71
2022/09/27 03:21:56;;;;;;;0.00;0.00;;;12.10;99.90;;;;;;6134123;23;20005;-70
2022/09/27 03:24:22;;;;;;;0.00;0.00;;;12.20;99.90;;;;;;6135575;23;20009;-71
2022/09/27 03:26:49;;;;;;;0.00;0.00;;;12.20;99.90;;;;;;6132665;23;20551;-71
2022/09/27 03:29:15;;;;;;;0.00;0.00;;;12.20;99.90;;;;;;6138311;23;20005;-71
2022/09/27 03:31:41;;;;;;;0.00;0.00;;;12.20;99.90;;;;;;6136108;23;20013;-70
2022/09/27 03:34:07;;;;;;;0.00;0.00;;;12.30;99.90;;;;;;6138980;23;20005;-70
2022/09/27 03:36:33;;;;;;;0.10;0.10;;;12.30;99.90;;;;;;6138527;23;20001;-70
2022/09/27 03:38:58;;;;;;;0.00;0.00;;;12.30;99.90;;;;;;6137692;23;20001;-71
2022/09/27 03:41:24;;;;;;;0.00;0.00;;;12.20;99.90;;;;;;6133069;23;20009;-70
2022/09/27 03:43:50;;;;;;;0.00;0.00;;;12.20;99.90;;;;;;6138472;23;20072;-70
2022/09/27 03:46:16;;;;;;;0.00;0.00;;;12.10;99.90;;;;;;6141365;23;20009;-70
2022/09/27 03:48:42;;;;;;;0.00;0.00;;;12.10;99.90;;;;;;6134571;23;20016;-71
2022/09/27 03:51:11;;;;;;;0.00;0.00;;;12.10;99.90;;;;;;6142101;23;20336;-71
2022/09/27 03:53:37;;;;;;;0.00;0.00;;;12.10;99.90;;;;;;6142036;23;19998;-70
2022/09/27 03:56:03;;;;;;;;;;;12.10;99.90;;;;;;6138705;23;20029;-70
2022/09/27 03:58:29;;;;;;;0.00;0.00;;;12.10;99.90;;;;;;6137922;23;19985;-70
2022/09/27 04:00:54;;;;;;;0.00;0.00;;;12.20;99.90;;;;;;6137375;23;20039;-70
2022/09/27 04:03:20;;;;;;;0.00;0.00;;;12.20;99.90;;;;;;6142701;23;20260;-70
2022/09/27 04:05:46;;;;;;;0.00;0.00;;;12.20;99.90;;;;;;6138340;23;20010;-70
2022/09/27 04:08:12;;;;;;;0.00;0.00;;;12.20;99.90;;;;;;6139422;23;20009;-70
2022/09/27 04:10:40;;;;;;;0.00;0.00;;;12.30;99.90;;;;;;6133087;23;20013;-70
2022/09/27 04:13:06;;;;;;;0.00;0.00;;;12.30;99.90;;;;;;6135648;23;20006;-71
2022/09/27 04:15:31;;;;;;;0.00;0.00;;;12.30;99.90;;;;;;6137298;23;20068;-70
2022/09/27 04:17:57;;;;;;;0.00;0.00;;;12.40;99.90;;;;;;6140061;23;20075;-70
2022/09/27 04:20:23;;;;;;;0.00;0.00;;;12.40;99.90;;;;;;6137299;23;20013;-70
2022/09/27 04:22:48;;;;;;;0.00;0.00;;;12.40;99.90;;;;;;6137423;23;20005;-70
2022/09/27 04:25:14;;;;;;;0.00;0.00;;;12.40;99.90;;;;;;6136363;23;20013;-71
2022/09/27 04:27:45;;;;;;;0.00;0.00;;;12.40;99.90;;;;;;6139820;23;20018;-70
2022/09/27 04:30:11;;;;;;;0.00;0.00;;;12.40;99.90;;;;;;6141880;23;20001;-70
2022/09/27 04:32:40;;;;;;;;;;;12.40;99.90;;;;;;6138642;23;20100;-70
2022/09/27 04:37:51;;;;;;;0.00;0.00;;;12.50;99.90;;;;;;6143399;23;20032;-70
2022/09/27 04:40:18;;;;;;;0.00;0.00;;;12.50;99.90;;;;;;6136970;23;20419;-71
2022/09/27 04:42:44;;;;;;;0.00;0.00;;;12.60;99.90;;;;;;6137890;23;20009;-71
2022/09/27 04:45:12;;;;;;;0.10;0.10;;;12.50;99.90;;;;;;6139844;23;20084;-70
2022/09/27 04:47:42;;;;;;;0.00;0.00;;;12.40;99.90;;;;;;6139560;23;20475;-70
2022/09/27 04:50:10;;;;;;;0.00;0.00;;;12.50;99.90;;;;;;6135506;23;20120;-70
2022/09/27 04:52:36;;;;;;;0.00;0.00;;;12.40;99.90;;;;;;6139101;23;20009;-70
2022/09/27 04:55:04;;;;;;;0.00;0.00;;;12.30;99.90;;;;;;6138207;23;20320;-70
2022/09/27 04:57:31;;;;;;;0.10;0.10;;;12.30;99.90;;;;;;6136890;23;20392;-70
2022/09/27 05:00:00;;;;;;;0.00;0.00;;;12.40;99.90;;;;;;6136666;23;20021;-71
2022/09/27 05:02:26;;;;;;;0.00;0.00;;;12.40;99.90;;;;;;6138183;23;20335;-70
2022/09/27 05:04:55;;;;;;;0.80;0.28;;;12.50;99.90;;;;;;6137831;23;20012;-71
2022/09/27 05:07:21;;;;;;;0.00;0.00;;;12.50;99.90;;;;;;6135477;23;20084;-70
2022/09/27 05:09:47;;;;;;;;;;;12.60;99.90;;;;;;6132175;23;20009;-71
2022/09/27 05:12:13;;;;;;;0.00;0.00;;;12.70;99.90;;;;;;6140224;23;20223;-70
2022/09/27 05:14:39;;;;;;;0.00;0.00;;;12.70;99.90;;;;;;6137340;23;20314;-70
2022/09/27 05:17:06;;;;;;;0.00;0.00;;;12.70;99.90;;;;;;6136550;23;20037;-71
2022/09/27 05:19:33;;;;;;;0.00;0.00;;;12.70;99.90;;;;;;6132065;23;20010;-70
2022/09/27 05:22:01;;;;;;;0.00;0.00;;;12.80;99.90;;;;;;6135662;23;20856;-70
2022/09/27 05:24:27;;;;;;;0.00;0.00;;;12.80;99.90;;;;;;6132613;23;20013;-71
2022/09/27 05:26:53;;;;;;;;;;;12.70;99.90;;;;;;6136243;23;20005;-67
2022/09/27 05:29:19;;;;;;;0.00;0.00;;;12.70;99.90;;;;;;6136221;23;19911;-67
2022/09/27 05:31:46;;;;;;;0.00;0.00;;;12.50;99.90;;;;;;6135745;23;20013;-67
2022/09/27 05:34:12;;;;;;;0.00;0.00;;;12.40;99.90;;;;;;6137184;23;20233;-70
2022/09/27 05:36:38;;;;;;;0.00;0.00;;;12.40;99.90;;;;;;6138059;23;20059;-70
2022/09/27 05:39:06;;;;;;;0.00;0.00;;;12.40;99.90;;;;;;6137455;23;20016;-70
2022/09/27 05:41:32;;;;;;;0.00;0.00;;;12.50;99.90;;;;;;6135523;23;20021;-70
2022/09/27 05:43:58;;;;;;;0.00;0.00;;;12.60;99.90;;;;;;6140731;23;20010;-70
2022/09/27 05:46:24;;;;;;;0.00;0.00;;;12.70;99.90;;;;;;6132528;23;20062;-71
2022/09/27 05:48:50;;;;;;;0.00;0.00;;;12.70;99.90;;;;;;6137510;23;20009;-70
2022/09/27 05:51:15;;;;;;;0.00;0.00;;;12.90;99.90;;;;;;6135563;23;20440;-70
2022/09/27 05:53:41;;;;;;;1.08;1.00;;;13.00;99.90;;;;;;6137128;23;20011;-70
2022/09/27 05:56:07;;;;;;;0.00;0.00;;;13.20;99.90;;;;;;6142679;23;20424;-71
2022/09/27 05:58:33;;;;;;;0.07;0.07;;;13.20;99.90;;;;;;6132692;23;20006;-70
2022/09/27 06:00:59;;;;;;;0.00;0.00;;;13.00;99.90;;;;;;6136518;23;20308;-71
2022/09/27 06:03:25;;;;;;;0.00;0.00;;;13.00;99.90;;;;;;6137197;23;20005;-71
2022/09/27 06:05:50;;;;;;;0.00;0.00;;;13.00;99.90;;;;;;6140976;23;20016;-70
2022/09/27 06:08:17;;;;;;;0.00;0.00;;;13.00;99.90;;;;;;6138995;23;20547;-70
2022/09/27 06:10:44;;;;;;;0.00;0.00;;;13.00;99.90;;;;;;6138807;23;20009;-70
2022/09/27 06:13:12;;;;;;;0.00;0.00;;;13.10;99.90;;;;;;6138555;23;20660;-70
2022/09/27 06:15:40;;;;;;;0.00;0.00;;;13.10;99.90;;;;;;6139851;23;20013;-70
2022/09/27 06:18:09;;;;;;;0.00;0.00;;;13.10;99.90;;;;;;6137513;23;20412;-71
2022/09/27 06:20:35;;;;;;;0.00;0.00;;;13.10;99.90;;;;;;6137290;23;20013;-71
2022/09/27 06:23:09;;;;;;;0.00;0.00;;;13.10;99.90;;;;;;6137805;23;20005;-70
2022/09/27 06:25:36;;;;;;;0.00;0.00;;;13.20;99.90;;;;;;6134992;23;20020;-70
2022/09/27 06:28:03;;;;;;;0.00;0.00;;;13.30;99.90;;;;;;6139249;23;20013;-71
2022/09/27 06:30:28;;;;;;;;;;;13.50;99.90;;;;;;6140108;23;20001;-71
2022/09/27 06:32:59;;;;;;;0.00;0.00;;;13.60;99.90;;;;;;6137658;23;19905;-70
2022/09/27 06:35:26;;;;;;;0.15;0.15;;;13.80;99.90;;;;;;6135254;23;20797;-70
2022/09/27 06:37:51;;;;;;;;;;;13.80;99.90;;;;;;6138084;23;20012;-70
2022/09/27 06:40:18;;;;;;;0.00;0.00;;;14.00;99.90;;;;;;6136528;23;19904;-71
2022/09/27 06:42:43;;;;;;;0.00;0.00;;;14.00;99.90;;;;;;6137076;23;20032;-70
2022/09/27 06:45:10;;;;;;;0.00;0.00;;;14.00;99.90;;;;;;6138423;23;20056;-70
2022/09/27 06:47:37;;;;;;;0.10;0.10;;;14.10;99.90;;;;;;6143654;23;20466;-70
2022/09/27 06:50:04;;;;;;;0.00;0.00;;;14.30;99.90;;;;;;6135285;23;20005;-70
2022/09/27 06:52:31;;;;;;;0.00;0.00;;;14.30;99.90;;;;;;6136840;23;20043;-70
2022/09/27 06:54:56;;;;;;;;;;;14.10;99.90;;;;;;6139135;23;20091;-70
2022/09/27 07:00:23;;;;;;;0.00;0.00;;;14.30;99.90;;;;;;6138199;23;20016;-71
2022/09/27 07:02:50;;;;;;;0.13;0.03;;;14.40;99.90;;;;;;6143170;23;20006;-70
2022/09/27 07:05:16;;;;;;;0.00;0.00;;;14.30;99.90;;;;;;6138798;23;20016;-71
2022/09/27 07:07:47;;;;;;;0.00;0.00;;;14.10;99.90;;;;;;6144674;23;20005;-70
2022/09/27 07:10:17;;;;;;;0.00;0.00;;;14.30;99.90;;;;;;6110551;23;20002;-70
2022/09/27 07:12:46;;;;;;;0.00;0.00;;;14.40;99.90;;;;;;6106164;23;20179;-70
2022/09/27 07:15:12;;;;;;;0.10;0.10;;;14.20;99.90;;;;;;6110647;23;20053;-70
2022/09/27 07:17:38;;;;;;;0.00;0.00;;;14.10;99.90;;;;;;6111033;23;20014;-70
2022/09/27 07:20:04;;;;;;;;;;;14.00;99.90;;;;;;6110370;23;20010;-71
2022/09/27 07:22:30;;;;;;;0.00;0.00;;;14.00;99.90;;;;;;6110300;23;20382;-70
2022/09/27 07:24:55;;;;;;;0.00;0.00;;;14.00;99.90;;;;;;6110646;23;20448;-70
2022/09/27 07:27:21;;;;;;;0.00;0.00;;;14.10;99.90;;;;;;6109040;23;20065;-70
2022/09/27 07:29:47;;;;;;;0.00;0.00;;;14.10;99.90;;;;;;6109116;23;20044;-70
2022/09/27 07:32:13;;;;;;;0.00;0.00;;;14.20;99.90;;;;;;6104606;23;20665;-70
2022/09/27 07:34:38;;;;;;;0.00;0.00;;;14.30;99.90;;;;;;6108232;23;20041;-71
2022/09/27 07:37:04;;;;;;;0.10;0.10;;;14.40;99.90;;;;;;6107187;23;20010;-70
2022/09/27 07:39:32;;;;;;;0.00;0.00;;;14.30;99.90;;;;;;6107945;23;20021;-70
2022/09/27 07:41:59;;;;;;;0.65;0.55;;;14.40;99.90;;;;;;6107056;23;20034;-71
2022/09/27 07:44:25;;;;;;;0.00;0.00;;;14.40;99.90;;;;;;6107693;23;20417;-70
2022/09/27 07:46:51;;;;;;;0.00;0.00;;;14.30;99.90;;;;;;6106216;23;20006;-71
2022/09/27 07:49:17;;;;;;;0.27;0.10;;;14.30;99.90;;;;;;6108259;23;20002;-71
2022/09/27 07:51:44;;;;;;;0.03;0.03;;;14.50;99.90;;;;;;6111520;23;20001;-70
2022/09/27 07:54:10;;;;;;;0.00;0.00;;;14.60;99.90;;;;;;6131069;23;20321;-70
2022/09/27 07:56:36;;;;;;;0.00;0.00;;;14.60;99.90;;;;;;6125991;23;20034;-70
2022/09/27 07:59:03;;;;;;;0.47;0.27;;;14.70;99.90;;;;;;6109789;23;20005;-71
2022/09/27 08:01:28;;;;;;;0.00;0.00;;;14.60;99.90;;;;;;6109901;23;20715;-70
2022/09/27 08:03:54;;;;;;;0.00;0.00;;;14.60;99.90;;;;;;6112122;23;20005;-70
2022/09/27 08:06:19;;;;;;;0.00;0.00;;;14.50;99.90;;;;;;6125637;23;20013;-70
2022/09/27 08:08:46;;;;;;;0.00;0.00;;;14.50;99.90;;;;;;6111000;23;20309;-70
2022/09/27 08:11:14;;;;;;;0.00;0.00;;;14.40;99.90;;;;;;6105525;23;20126;-70
2022/09/27 08:13:44;;;;;;;0.00;0.00;;;14.40;99.90;;;;;;6124549;23;20049;-71
2022/09/27 08:16:10;;;;;;;0.00;0.00;;;14.40;99.90;;;;;;6112704;23;20006;-70
2022/09/27 08:18:36;;;;;;;0.00;0.00;;;14.30;99.90;;;;;;6108267;23;20518;-70
2022/09/27 08:21:02;;;;;;;0.00;0.00;;;14.20;99.90;;;;;;6107211;23;20010;-70
2022/09/27 08:23:28;;;;;;;;;;;14.10;99.90;;;;;;6108251;23;20451;-70
2022/09/27 08:25:58;;;;;;;0.00;0.00;;;14.00;99.90;;;;;;6108448;23;19905;-70
2022/09/27 08:28:25;;;;;;;0.00;0.00;;;13.90;99.90;;;;;;6112538;23;20045;-70
2022/09/27 08:30:51;;;;;;;0.00;0.00;;;13.90;99.90;;;;;;6108762;23;20002;-70
2022/09/27 08:33:17;;;;;;;0.00;0.00;;;13.70;99.90;;;;;;6108562;23;20914;-70
2022/09/27 08:35:44;;;;;;;0.00;0.00;;;13.70;99.90;;;;;;6107146;23;20412;-70
2022/09/27 08:38:10;;;;;;;0.00;0.00;;;13.60;99.90;;;;;;6108150;23;20065;-71
2022/09/27 08:40:54;;;;;;;0.00;0.00;;;13.50;99.90;;;;;;6107174;23;20010;-70
2022/09/27 08:43:43;;;;;;;0.00;0.00;;;13.50;99.90;;;;;;6107947;23;20006;-70
2022/09/27 08:46:33;;;;;;;0.00;0.00;;;13.50;99.90;;;;;;6103097;23;20090;-70
2022/09/27 08:49:22;;;;;;;0.00;0.00;;;13.40;99.90;;;;;;6101889;23;20013;-70
2022/09/27 08:51:52;;;;;;;0.05;0.05;;;13.50;99.90;;;;;;6107912;23;20309;-70
2022/09/27 08:54:27;;;;;;;0.00;0.00;;;13.40;99.90;;;;;;6108864;23;20006;-70
2022/09/27 08:56:58;;;;;;;0.00;0.00;;;13.50;99.90;;;;;;6108077;23;20006;-70
2022/09/27 08:59:28;;;;;;;0.00;0.00;;;13.40;99.90;;;;;;6106596;23;20013;-70
2022/09/27 09:01:54;;;;;;;0.00;0.00;;;13.40;99.90;;;;;;6106941;23;20081;-71
2022/09/27 09:04:41;;;;;;;0.00;0.00;;;13.40;99.90;;;;;;6132706;23;20009;-70
2022/09/27 09:07:29;;;;;;;0.00;0.00;;;13.60;99.90;;;;;;6108190;23;20014;-70
2022/09/27 09:10:05;;;;;;;0.00;0.00;;;13.70;99.90;;;;;;6108261;23;20005;-70
2022/09/27 09:13:01;;;;;;;0.00;0.00;;;13.50;99.90;;;;;;6104155;23;20006;-70
2022/09/27 09:15:57;;;;;;;0.10;0.05;;;13.50;99.90;;;;;;6131402;23;20010;-70
2022/09/27 09:19:09;;;;;;;0.00;0.00;;;13.60;99.90;;;;;;6113300;23;20008;-71
2022/09/27 09:22:07;;;;;;;0.00;0.00;;;13.60;99.90;;;;;;6130743;23;20017;-70
2022/09/27 09:24:42;;;;;;;0.00;0.00;;;13.60;99.90;;;;;;6112078;23;20033;-71
2022/09/27 09:27:41;;;;;;;0.00;0.00;;;13.60;99.90;;;;;;6107706;23;20010;-70
2022/09/27 09:30:34;;;;;;;0.00;0.00;;;13.70;99.90;;;;;;6105585;23;20010;-71
2022/09/27 09:33:23;;;;;;;0.00;0.00;;;13.80;99.90;;;;;;6110909;23;20010;-71
2022/09/27 09:35:53;;;;;;;0.00;0.00;;;13.70;99.90;;;;;;6108851;23;20073;-70
2022/09/27 09:38:33;;;;;;;0.00;0.00;;;13.70;99.90;;;;;;6131521;23;20416;-70
2022/09/27 09:41:21;;;;;;;0.00;0.00;;;13.70;99.90;;;;;;6106515;23;20014;-70
2022/09/27 09:43:54;;;;;;;0.00;0.00;;;13.70;99.90;;;;;;6106964;23;20596;-71
2022/09/27 09:46:38;;;;;;;0.00;0.00;;;13.70;99.90;;;;;;6105905;23;20006;-70
2022/09/27 09:49:16;;;;;;;0.00;0.00;;;13.80;99.90;;;;;;6107947;23;20444;-70
2022/09/27 09:51:48;;;;;;;0.00;0.00;;;13.80;99.90;;;;;;6101697;23;20005;-70
2022/09/27 09:54:30;;;;;;;0.00;0.00;;;13.90;99.90;;;;;;6108045;23;20002;-70
2022/09/27 09:57:10;;;;;;;0.00;0.00;;;14.10;99.90;;;;;;6109576;23;20751;-70
2022/09/27 09:59:44;;;;;;;0.00;0.00;;;14.30;99.90;;;;;;6109627;23;20056;-70
2022/09/27 10:02:20;;;;;;;0.00;0.00;;;14.40;99.90;;;;;;6107617;23;20006;-70
2022/09/27 10:04:46;;;;;;;0.00;0.00;;;14.50;99.90;;;;;;6108185;23;20006;-70
2022/09/27 10:07:15;;;;;;;0.00;0.00;;;14.70;99.90;;;;;;6107413;23;20443;-70
2022/09/27 10:09:41;;;;;;;0.00;0.00;;;14.80;99.90;;;;;;6105699;23;20770;-70
2022/09/27 10:12:08;;;;;;;1.17;0.13;;;15.00;99.90;;;;;;6126544;23;20081;-70
2022/09/27 10:14:34;;;;;;;0.00;0.00;;;15.20;99.90;;;;;;6111198;23;20312;-71
2022/09/27 10:17:04;;;;;;;0.00;0.00;;;15.40;99.90;;;;;;6107632;23;20010;-70
2022/09/27 10:19:33;;;;;;;0.00;0.00;;;15.60;99.90;;;;;;6130510;23;20326;-70
2022/09/27 10:22:21;;;;;;;0.00;0.00;;;15.70;99.90;;;;;;6129480;23;20073;-71
2022/09/27 10:24:52;;;;;;;;;;;16.00;99.90;;;;;;6107795;23;20353;-70
2022/09/27 10:27:18;;;;;;;0.00;0.00;;;16.20;99.90;;;;;;6107314;23;19905;-71
2022/09/27 10:29:43;;;;;;;0.00;0.00;;;16.20;99.90;;;;;;6107036;23;20006;-71
2022/09/27 10:32:26;;;;;;;0.00;0.00;;;16.40;99.90;;;;;;6107870;23;20024;-70
2022/09/27 10:34:51;;;;;;;0.00;0.00;;;16.40;99.90;;;;;;6106489;23;20010;-70
2022/09/27 10:37:20;;;;;;;0.00;0.00;;;16.50;99.90;;;;;;6107796;23;20280;-70
2022/09/27 10:39:48;;;;;;;0.00;0.00;;;16.40;99.90;;;;;;6106659;23;20305;-70
2022/09/27 10:42:36;;;;;;;0.00;0.00;;;16.30;99.90;;;;;;6106374;23;20010;-70
2022/09/27 10:45:25;;;;;;;0.00;0.00;;;16.50;99.90;;;;;;6111671;23;20006;-70
2022/09/27 10:47:51;;;;;;;0.00;0.00;;;16.90;99.90;;;;;;6125989;23;20119;-70
2022/09/27 10:50:30;;;;;;;0.00;0.00;;;17.40;99.90;;;;;;6107533;23;20401;-70
2022/09/27 10:53:26;;;;;;;0.00;0.00;;;17.80;99.90;;;;;;6108743;23;20041;-70
2022/09/27 10:55:53;;;;;;;0.00;0.00;;;18.10;99.90;;;;;;6089724;23;20301;-70
2022/09/27 10:58:30;;;;;;;0.00;0.00;;;18.10;99.90;;;;;;6108627;23;20005;-70
2022/09/27 11:01:02;;;;;;;;;;;18.00;99.90;;;;;;6107817;23;20081;-70
2022/09/27 11:03:34;;;;;;;0.00;0.00;;;17.60;99.90;;;;;;6131269;23;19905;-70
2022/09/27 11:06:16;;;;;;;1.67;0.20;;;17.40;99.90;;;;;;6127920;23;20038;-70
2022/09/27 11:08:44;;;;;;;0.00;0.00;;;17.20;99.90;;;;;;6107251;23;20013;-72
2022/09/27 11:11:12;;;;;;;0.00;0.00;;;16.90;99.90;;;;;;6132699;23;20010;-70
2022/09/27 11:14:03;;;;;;;0.00;0.00;;;16.90;99.90;;;;;;6109447;23;20006;-70
2022/09/27 11:17:00;;;;;;;0.00;0.00;;;16.80;99.90;;;;;;6094642;23;20125;-70
2022/09/27 11:19:44;;;;;;;0.00;0.00;;;16.60;99.90;;;;;;6108312;23;20339;-70
2022/09/27 11:22:32;;;;;;;0.00;0.00;;;16.50;99.90;;;;;;6108454;23;20012;-70
2022/09/27 11:25:38;;;;;;;0.00;0.00;;;16.40;99.90;;;;;;6107348;23;20010;-70
2022/09/27 11:28:32;;;;;;;0.00;0.00;;;16.30;99.90;;;;;;6108434;23;20012;-70
2022/09/27 11:31:15;;;;;;;0.00;0.00;;;16.40;99.90;;;;;;6106775;23;20014;-70
2022/09/27 11:34:03;;;;;;;0.00;0.00;;;16.30;99.90;;;;;;6108394;23;20065;-70
2022/09/27 11:36:38;;;;;;;0.00;0.00;;;16.00;99.90;;;;;;6107085;23;20017;-70
2022/09/27 11:39:19;;;;;;;0.00;0.00;;;16.00;99.90;;;;;;6106389;23;20006;-70
2022/09/27 11:41:50;;;;;;;0.00;0.00;;;16.10;99.90;;;;;;6107461;23;20018;-70
2022/09/27 11:44:45;;;;;;;0.00;0.00;;;16.20;99.90;;;;;;6108641;23;20080;-70
2022/09/27 11:47:36;;;;;;;0.00;0.00;;;16.20;99.90;;;;;;6108145;23;20038;-70
2022/09/27 11:50:28;;;;;;;0.00;0.00;;;16.30;99.90;;;;;;6103894;23;20013;-71
2022/09/27 11:53:00;;;;;;;0.00;0.00;;;16.10;99.90;;;;;;6097428;23;20419;-71
2022/09/27 11:55:40;;;;;;;0.00;0.00;;;16.00;99.90;;;;;;6103938;23;20013;-70
2022/09/27 11:58:41;;;;;;;0.00;0.00;;;16.00;99.90;;;;;;6107744;23;20006;-70
2022/09/27 12:01:30;;;;;;;0.00;0.00;;;15.80;99.90;;;;;;6060744;23;20002;-70
2022/09/27 12:04:18;;;;;;;0.00;0.00;;;15.80;99.90;;;;;;6109982;23;20101;-70
2022/09/27 12:07:19;;;;;;;0.00;0.00;;;15.90;99.90;;;;;;6114961;23;20013;-70
2022/09/27 12:09:50;;;;;;;0.00;0.00;;;16.00;99.90;;;;;;6103805;23;20018;-70
2022/09/27 12:12:25;;;;;;;0.00;0.00;;;16.10;99.90;;;;;;6108128;23;20724;-70
2022/09/27 12:15:01;;;;;;;0.00;0.00;;;16.10;99.90;;;;;;6108123;23;20559;-70
2022/09/27 12:17:38;;;;;;;0.00;0.00;;;16.00;99.90;;;;;;6108224;23;20399;-70
2022/09/27 12:20:17;;;;;;;0.00;0.00;;;16.00;99.90;;;;;;6129992;23;20320;-70
2022/09/27 12:23:06;;;;;;;0.00;0.00;;;16.00;99.90;;;;;;6108015;23;20333;-70
2022/09/27 12:25:38;;;;;;;0.00;0.00;;;16.20;99.90;;;;;;6109425;23;20101;-70
2022/09/27 12:28:41;;;;;;;0.00;0.00;;;16.10;99.90;;;;;;6108747;23;20005;-70
2022/09/27 12:31:41;;;;;;;0.00;0.00;;;16.10;99.90;;;;;;6100111;23;20009;-70
2022/09/27 12:34:14;;;;;;;0.00;0.00;;;16.10;99.90;;;;;;6108318;23;20482;-70
2022/09/27 12:36:46;;;;;;;0.00;0.00;;;16.20;99.90;;;;;;6113938;23;20061;-71
2022/09/27 12:39:27;;;;;;;0.00;0.00;;;16.20;99.90;;;;;;6108148;23;20404;-70
2022/09/27 12:42:34;;;;;;;0.00;0.00;;;16.30;99.90;;;;;;6102369;23;20026;-70
2022/09/27 12:45:00;;;;;;;0.00;0.00;;;16.30;99.90;;;;;;6090789;23;20184;-70
2022/09/27 12:47:54;;;;;;;0.00;0.00;;;16.20;99.90;;;;;;6109754;23;20033;-69
2022/09/27 12:50:48;;;;;;;0.00;0.00;;;16.20;99.90;;;;;;6108724;23;20377;-70
2022/09/27 12:53:55;;;;;;;0.00;0.00;;;16.30;99.90;;;;;;6107749;23;20002;-70
2022/09/27 12:56:56;;;;;;;0.00;0.00;;;16.40;99.90;;;;;;6053150;23;20014;-70
2022/09/27 12:59:51;;;;;;;0.00;0.00;;;16.40;99.90;;;;;;6107451;23;20006;-70
2022/09/27 13:02:32;;;;;;;0.00;0.00;;;16.20;99.90;;;;;;6107760;23;20088;-70
2022/09/27 13:05:21;;;;;;;0.45;0.45;;;16.10;99.90;;;;;;6107216;23;20016;-70
2022/09/27 13:08:12;;;;;;;0.00;0.00;;;16.00;99.90;;;;;;6107751;23;20006;-70
2022/09/27 13:10:37;;;;;;;0.00;0.00;;;15.90;99.90;;;;;;6108052;23;20071;-70
2022/09/27 13:13:05;;;;;;;0.00;0.00;;;15.80;99.90;;;;;;6106271;23;20726;-70
2022/09/27 13:15:38;;;;;;;0.00;0.00;;;15.70;99.90;;;;;;6106665;23;20018;-70
2022/09/27 13:18:25;;;;;;;0.00;0.00;;;15.60;99.90;;;;;;6103459;23;20042;-70
2022/09/27 13:20:51;;;;;;;0.00;0.00;;;15.50;99.90;;;;;;6106838;23;20439;-70
2022/09/27 13:23:20;;;;;;;0.00;0.00;;;15.40;99.90;;;;;;6106524;23;20006;-70
2022/09/27 13:25:52;;;;;;;0.10;0.10;;;15.40;99.90;;;;;;6107942;23;20002;-70
2022/09/27 13:28:31;;;;;;;0.00;0.00;;;15.20;99.90;;;;;;6107435;23;20010;-70
2022/09/27 13:30:58;;;;;;;0.00;0.00;;;15.20;99.90;;;;;;6106926;23;20544;-70